Seaturbot — DDTS — position and weather

sailwx.info

Track history (hours):
 
Tides and Currents Weather Stations Pressure Air Temp Water Temp Dewpoint Dewpoint Depression Visibility Wind Speed Wind Dir Waves Ship Positions

Seaturbot

Last reported at 2017-Oct-18 12:19 UTC. Time now 2017-Oct-18 16:58 UTC.
Position N 40°48' E 028°58'.

Length 177 m; draft 7.1 m.

Type: Tanker. MMSI: 211330520.

Date/timePositionNaut miles runAvg speedWind from/ knotsBaromVisibWave heightAir tempDewpointWater temp
2017-Oct-18 12:19N 40°48' E 028°58'1 2.5
2017-Oct-18 11:57N 40°49' E 028°58'4 0.8
2017-Oct-18 07:34N 40°47' E 028°54'1 1.2
2017-Oct-18 07:06N 40°47' E 028°53'2 0.8
2017-Oct-18 04:59N 40°47' E 028°55'0 0.6
2017-Oct-18 04:28N 40°47' E 028°55'2 4.2
2017-Oct-18 04:00N 40°49' E 028°53'148 8.7
2017-Oct-17 10:54N 39°50' E 025°55'2 0.5
2017-Oct-17 07:57N 39°48' E 025°54'14311.1
2017-Oct-16 19:02N 37°41' E 024°30'45310.7
2017-Oct-15 00:32N 36°28' E 015°10'012.2
2017-Oct-15 00:30N 36°28' E 015°09'1412.5
2017-Oct-14 23:20N 36°29' E 014°51'512.8
2017-Oct-14 22:57N 36°29' E 014°45'613.1
2017-Oct-14 22:30N 36°30' E 014°37'713.2
2017-Oct-14 22:00N 36°31' E 014°30'713.4
2017-Oct-14 21:30N 36°34' E 014°22'713.3
2017-Oct-14 21:00N 36°38' E 014°16'713.3
2017-Oct-14 20:30N 36°42' E 014°09'713.4
2017-Oct-14 20:00N 36°46' E 014°02'713.3
2017-Oct-14 19:30N 36°50' E 013°55'713.4
2017-Oct-14 19:00N 36°54' E 013°48'713.2
2017-Oct-14 18:30N 36°58' E 013°42'25412.3
2017-Oct-13 21:48N 38°34' E 008°44'412.2
2017-Oct-13 21:30N 38°35' E 008°39'20212.3
2017-Oct-13 04:59N 40°18' E 004°53'812.4
2017-Oct-13 04:21N 40°22' E 004°45'512.1
2017-Oct-13 03:56N 40°25' E 004°39'1712.1
2017-Oct-13 02:34N 40°34' E 004°21'212.3
2017-Oct-13 02:24N 40°35' E 004°19'4012.8
2017-Oct-12 23:15N 40°56' E 003°34'413.2
2017-Oct-12 22:57N 40°59' E 003°29'  
2017-Oct-09 19:15N 41°18' E 002°11'1311.1
2017-Oct-09 18:07N 41°07' E 002°05'112.4
2017-Oct-09 18:00N 41°06' E 002°04'20711.7
2017-Oct-09 00:18N 38°04' W 000°05'411.4
2017-Oct-08 23:55N 38°00' W 000°08'1611.4
2017-Oct-08 22:29N 37°47' W 000°19'611.5
2017-Oct-08 21:57N 37°41' W 000°24'511.7
2017-Oct-08 21:30N 37°37' W 000°28'611.7
2017-Oct-08 21:00N 37°33' W 000°32'611.1
2017-Oct-08 20:29N 37°31' W 000°39'611.7
2017-Oct-08 20:00N 37°31' W 000°46'611.4
2017-Oct-08 19:30N 37°32' W 000°53'  
Track history (hours):
 
Tides and Currents Weather Stations Pressure Air Temp Water Temp Dewpoint Dewpoint Depression Visibility Wind Speed Wind Dir Waves Ship Positions

Seaturbot

Last reported at 2017-Oct-18 12:19 UTC. Time now 2017-Oct-18 16:58 UTC.
Position N 40°48' E 028°58'.

Length 177 m; draft 7.1 m.

Type: Tanker. MMSI: 211330520.

Date/timePositionNaut miles runAvg speedWind from/ knotsBaromVisibWave heightAir tempDewpointWater temp
2017-Oct-18 12:19N 40°48' E 028°58'1 2.5
2017-Oct-18 11:57N 40°49' E 028°58'4 0.8
2017-Oct-18 07:34N 40°47' E 028°54'1 1.2
2017-Oct-18 07:06N 40°47' E 028°53'2 0.8
2017-Oct-18 04:59N 40°47' E 028°55'0 0.6
2017-Oct-18 04:28N 40°47' E 028°55'2 4.2
2017-Oct-18 04:00N 40°49' E 028°53'148 8.7
2017-Oct-17 10:54N 39°50' E 025°55'2 0.5
2017-Oct-17 07:57N 39°48' E 025°54'14311.1
2017-Oct-16 19:02N 37°41' E 024°30'45310.7
2017-Oct-15 00:32N 36°28' E 015°10'012.2
2017-Oct-15 00:30N 36°28' E 015°09'1412.5
2017-Oct-14 23:20N 36°29' E 014°51'512.8
2017-Oct-14 22:57N 36°29' E 014°45'613.1
2017-Oct-14 22:30N 36°30' E 014°37'713.2
2017-Oct-14 22:00N 36°31' E 014°30'713.4
2017-Oct-14 21:30N 36°34' E 014°22'713.3
2017-Oct-14 21:00N 36°38' E 014°16'713.3
2017-Oct-14 20:30N 36°42' E 014°09'713.4
2017-Oct-14 20:00N 36°46' E 014°02'713.3
2017-Oct-14 19:30N 36°50' E 013°55'713.4
2017-Oct-14 19:00N 36°54' E 013°48'713.2
2017-Oct-14 18:30N 36°58' E 013°42'25412.3
2017-Oct-13 21:48N 38°34' E 008°44'412.2
2017-Oct-13 21:30N 38°35' E 008°39'20212.3
2017-Oct-13 04:59N 40°18' E 004°53'812.4
2017-Oct-13 04:21N 40°22' E 004°45'512.1
2017-Oct-13 03:56N 40°25' E 004°39'1712.1
2017-Oct-13 02:34N 40°34' E 004°21'212.3
2017-Oct-13 02:24N 40°35' E 004°19'4012.8
2017-Oct-12 23:15N 40°56' E 003°34'413.2
2017-Oct-12 22:57N 40°59' E 003°29'  
2017-Oct-09 19:15N 41°18' E 002°11'1311.1
2017-Oct-09 18:07N 41°07' E 002°05'112.4
2017-Oct-09 18:00N 41°06' E 002°04'20711.7
2017-Oct-09 00:18N 38°04' W 000°05'411.4
2017-Oct-08 23:55N 38°00' W 000°08'1611.4
2017-Oct-08 22:29N 37°47' W 000°19'611.5
2017-Oct-08 21:57N 37°41' W 000°24'511.7
2017-Oct-08 21:30N 37°37' W 000°28'611.7
2017-Oct-08 21:00N 37°33' W 000°32'611.1
2017-Oct-08 20:29N 37°31' W 000°39'611.7
2017-Oct-08 20:00N 37°31' W 000°46'611.4
2017-Oct-08 19:30N 37°32' W 000°53'  

Dump ship's entire track history